createdAt,value
2018-05-06T00:00:23.190Z,10.64
2018-05-06T00:04:23.935Z,10.75
2018-05-06T00:10:24.666Z,15.4
2018-05-06T00:14:25.394Z,13.12
2018-05-06T00:20:26.097Z,13.03
2018-05-06T00:24:26.820Z,12.21
2018-05-06T00:26:27.479Z,13.51
2018-05-06T00:30:28.880Z,12.47
2018-05-06T00:36:29.563Z,10.89
2018-05-06T00:40:30.343Z,11.51
2018-05-06T00:46:31.053Z,10.74
2018-05-06T00:52:31.982Z,10.09
2018-05-06T00:56:32.651Z,9.03
2018-05-06T01:02:33.335Z,9.17
2018-05-06T01:06:34.071Z,9.42
2018-05-06T01:12:34.843Z,12.25
2018-05-06T01:18:35.540Z,10.18
2018-05-06T01:22:36.255Z,8.59
2018-05-06T01:28:37.017Z,9.1
2018-05-06T01:32:37.689Z,9.53
2018-05-06T01:38:38.371Z,9.77
2018-05-06T01:44:39.157Z,8.38
2018-05-06T01:48:39.854Z,8.67
2018-05-06T01:54:40.612Z,9.29
2018-05-06T01:58:41.324Z,9.49
2018-05-06T02:04:42.061Z,9.46
2018-05-06T02:10:42.813Z,12.2
2018-05-06T02:14:43.505Z,10.06
2018-05-06T02:20:44.288Z,8.71
2018-05-06T02:24:44.984Z,9.52
2018-05-06T02:30:45.812Z,8.99
2018-05-06T02:36:46.548Z,11.49
2018-05-06T02:40:47.193Z,10.04
2018-05-06T02:46:47.931Z,10.13
2018-05-06T02:50:48.664Z,9.68
2018-05-06T02:56:49.454Z,9.84
2018-05-06T03:02:50.118Z,9.12
2018-05-06T03:06:51.000Z,9.94
2018-05-06T03:12:51.710Z,11.68
2018-05-06T03:16:52.496Z,9.26
2018-05-06T03:18:53.156Z,9.3
2018-05-06T03:22:53.937Z,9.89
2018-05-06T03:28:54.642Z,9.68
2018-05-06T03:32:55.399Z,11.66
2018-05-06T03:38:56.113Z,11.01
2018-05-06T03:42:57.132Z,10.75
2018-05-06T03:44:57.769Z,11.3
2018-05-06T03:48:58.543Z,10.68
2018-05-06T03:54:59.291Z,9.73
2018-05-06T03:59:00.068Z,9.64
2018-05-06T04:05:00.777Z,9.9
2018-05-06T04:09:01.468Z,8.64
2018-05-06T04:11:02.237Z,9.98
2018-05-06T04:15:02.923Z,9.29
2018-05-06T04:21:03.703Z,11.87
2018-05-06T04:25:04.553Z,9.94
2018-05-06T04:31:05.279Z,11.34
2018-05-06T04:35:06.100Z,9.38
2018-05-06T04:37:06.820Z,9.89
2018-05-06T04:41:07.616Z,9.1
2018-05-06T04:47:08.401Z,10.71
2018-05-06T04:51:09.104Z,11.34
2018-05-06T04:57:09.883Z,10.57
2018-05-06T05:01:10.630Z,10.07
2018-05-06T05:03:11.254Z,9.23
2018-05-06T05:07:11.937Z,8.84
2018-05-06T05:13:12.641Z,10.58
2018-05-06T05:17:13.419Z,8.89
2018-05-06T05:23:14.026Z,11.02
2018-05-06T05:27:14.724Z,9.82
2018-05-06T05:29:15.409Z,12.58
2018-05-06T05:33:15.980Z,9.58
2018-05-06T05:39:16.704Z,10.08
2018-05-06T05:43:17.484Z,10.56
2018-05-06T05:49:18.230Z,12.15
2018-05-06T05:53:19.121Z,11.81
2018-05-06T05:55:19.709Z,13.06
2018-05-06T05:59:20.520Z,11.86
2018-05-06T06:05:21.393Z,16.12
2018-05-06T06:09:22.172Z,14.11
2018-05-06T06:15:23.241Z,15.43
2018-05-06T06:19:24.040Z,14.56
2018-05-06T06:21:24.816Z,16.87
2018-05-06T06:25:25.598Z,15.09
2018-05-06T06:31:26.730Z,14.39
2018-05-06T06:35:27.569Z,13.08
2018-05-06T06:41:28.509Z,13.01
2018-05-06T06:45:29.184Z,14.39
2018-05-06T06:47:29.978Z,14.31
2018-05-06T06:51:30.892Z,18.89
2018-05-06T06:57:31.664Z,16.51
2018-05-06T07:01:32.427Z,15.53
2018-05-06T07:07:33.144Z,17.34
2018-05-06T07:13:33.874Z,16.17
2018-05-06T07:17:34.612Z,14.81
2018-05-06T07:23:35.285Z,23.11
2018-05-06T07:27:41.555Z,21.3
2018-05-06T07:33:42.269Z,21.87
2018-05-06T07:37:43.005Z,21.88
2018-05-06T07:39:43.852Z,20.28
2018-05-06T07:43:44.593Z,18.71
2018-05-06T07:49:45.340Z,17.58
2018-05-06T07:53:46.084Z,16.22
2018-05-06T07:59:46.792Z,16.05
2018-05-06T08:03:47.580Z,15.15
2018-05-06T08:05:48.186Z,14.25
2018-05-06T08:09:48.954Z,14.98
2018-05-06T08:15:49.686Z,20.52
2018-05-06T08:19:50.338Z,21.4
2018-05-06T08:25:51.099Z,17.47
2018-05-06T08:29:51.756Z,17.32
2018-05-06T08:31:52.458Z,18.59
2018-05-06T08:35:53.254Z,18.5
2018-05-06T08:41:53.964Z,20.61
2018-05-06T08:45:54.630Z,18.94
2018-05-06T08:51:55.381Z,22.69
2018-05-06T08:57:56.111Z,22.14
2018-05-06T09:01:56.931Z,22.06
2018-05-06T09:07:57.664Z,21.72
2018-05-06T09:11:58.367Z,21.98
2018-05-06T09:17:59.129Z,23.23
2018-05-06T09:24:00.177Z,28.16
2018-05-06T09:28:00.860Z,23.05
2018-05-06T09:34:01.628Z,23.13
2018-05-06T09:38:02.378Z,25.19
2018-05-06T09:44:03.143Z,20.57
2018-05-06T09:50:03.942Z,17.35
2018-05-06T09:54:04.664Z,16.5
2018-05-06T10:00:05.354Z,14.17
2018-05-06T10:04:06.086Z,14.23
2018-05-06T10:10:06.801Z,15.52
2018-05-06T10:16:07.481Z,14.88
2018-05-06T10:20:08.247Z,14.52
2018-05-06T10:26:09.021Z,14.43
2018-05-06T10:30:10.108Z,13.62
2018-05-06T10:36:10.797Z,11.36
2018-05-06T10:42:11.559Z,12.83
2018-05-06T10:46:12.357Z,11.79
2018-05-06T10:52:13.104Z,35.18
2018-05-06T10:56:13.767Z,31.48
2018-05-06T11:02:14.514Z,26.21
2018-05-06T11:08:15.254Z,22.82
2018-05-06T11:12:15.965Z,22.97
2018-05-06T11:18:16.759Z,21.1
2018-05-06T11:22:17.438Z,19.49
2018-05-06T11:24:18.162Z,18.88
2018-05-06T11:28:18.872Z,18.69
2018-05-06T11:34:19.658Z,16.06
2018-05-06T11:38:20.448Z,14.77
2018-05-06T11:44:21.284Z,15.02
2018-05-06T11:48:21.964Z,16.04
2018-05-06T11:50:22.675Z,17.01
2018-05-06T11:54:24.014Z,17.18
2018-05-06T12:00:24.952Z,18.26
2018-05-06T12:04:25.762Z,17.12
2018-05-06T12:10:26.499Z,23.36
2018-05-06T12:14:27.226Z,23
2018-05-06T12:16:28.129Z,21.32
2018-05-06T12:20:28.898Z,21.67
2018-05-06T12:26:29.897Z,24.45
2018-05-06T12:30:31.592Z,24.31
2018-05-06T12:36:32.263Z,16.12
2018-05-06T12:40:33.032Z,16
2018-05-06T12:42:33.704Z,15.92
2018-05-06T12:46:34.578Z,16.49
2018-05-06T12:52:35.272Z,16.77
2018-05-06T12:56:35.947Z,16.53
2018-05-06T13:02:36.746Z,15.77
2018-05-06T13:06:37.434Z,15.82
2018-05-06T13:08:38.082Z,15.79
2018-05-06T13:12:38.783Z,15.21
2018-05-06T13:18:39.456Z,14.68
2018-05-06T13:22:40.192Z,13.56
2018-05-06T13:28:40.943Z,14.94
2018-05-06T13:32:41.709Z,13.56
2018-05-06T13:34:42.542Z,14.22
2018-05-06T13:38:43.236Z,13.72
2018-05-06T13:44:43.987Z,14.08
2018-05-06T13:48:44.688Z,14.06
2018-05-06T13:54:45.425Z,14.95
2018-05-06T13:58:46.133Z,13.67
2018-05-06T14:00:46.871Z,14.8
2018-05-06T14:04:47.702Z,14.02
2018-05-06T14:10:48.407Z,14.27
2018-05-06T14:14:49.103Z,13.84
2018-05-06T14:20:49.775Z,16.05
2018-05-06T14:24:50.606Z,14.36
2018-05-06T14:26:51.309Z,15.1
2018-05-06T14:30:52.038Z,14.92
2018-05-06T14:36:52.845Z,14.48
2018-05-06T14:40:53.699Z,14.66
2018-05-06T14:46:54.430Z,14.3
2018-05-06T14:50:55.176Z,13.92
2018-05-06T14:52:55.810Z,16.07
2018-05-06T14:56:56.759Z,14.35
2018-05-06T15:02:57.415Z,15.78
2018-05-06T15:06:58.263Z,15.42
2018-05-06T15:12:59.096Z,15.19
2018-05-06T15:18:59.784Z,15.85
2018-05-06T15:23:00.534Z,14.5
2018-05-06T15:29:01.298Z,15.96
2018-05-06T15:33:02.079Z,14.95
2018-05-06T15:39:02.932Z,14.84
2018-05-06T15:45:03.638Z,15.62
2018-05-06T15:49:04.378Z,15.8
2018-05-06T15:55:05.239Z,16.04
2018-05-06T15:59:06.004Z,14.72
2018-05-06T16:05:06.701Z,15.31
2018-05-06T16:11:07.493Z,14.56
2018-05-06T16:15:08.665Z,14
2018-05-06T16:21:09.448Z,15.17
2018-05-06T16:25:10.223Z,14.27
2018-05-06T16:31:11.000Z,14.19
2018-05-06T16:37:11.741Z,13.65
2018-05-06T16:41:12.523Z,13.69
2018-05-06T16:47:13.260Z,14.56
2018-05-06T16:51:14.076Z,13.11
2018-05-06T16:57:14.974Z,14.6
2018-05-06T17:03:15.644Z,13.8
2018-05-06T17:07:16.474Z,13.52
2018-05-06T17:13:17.224Z,14.72
2018-05-06T17:17:17.940Z,14.94
2018-05-06T17:19:18.672Z,14.64
2018-05-06T17:23:19.393Z,14.22
2018-05-06T17:29:20.100Z,14.02
2018-05-06T17:33:20.804Z,14.81
2018-05-06T17:39:21.524Z,14.97
2018-05-06T17:43:22.239Z,14.41
2018-05-06T17:45:23.061Z,15.11
2018-05-06T17:49:23.854Z,14.42
2018-05-06T17:55:24.587Z,14.84
2018-05-06T17:59:25.338Z,14.16
2018-05-06T18:05:26.056Z,16.97
2018-05-06T18:09:26.821Z,17.55
2018-05-06T18:11:27.551Z,19.19
2018-05-06T18:15:28.959Z,20.19
2018-05-06T18:21:29.793Z,19.9
2018-05-06T18:25:30.508Z,20.99
2018-05-06T18:31:31.257Z,20.32
2018-05-06T18:35:31.971Z,21.12
2018-05-06T18:37:32.655Z,20.83
2018-05-06T18:41:33.311Z,20.26
2018-05-06T18:47:34.033Z,19.69
2018-05-06T18:51:34.746Z,20.28
2018-05-06T18:57:35.466Z,19.81
2018-05-06T19:01:36.284Z,17.86
2018-05-06T19:03:36.958Z,18.7
2018-05-06T19:07:37.579Z,18.39
2018-05-06T19:13:38.363Z,21.07
2018-05-06T19:17:39.290Z,19.71
2018-05-06T19:23:39.928Z,16.64
2018-05-06T19:27:40.744Z,15.63
2018-05-06T19:33:42.922Z,16.06
2018-05-06T19:33:43.090Z,20.15
2018-05-06T19:39:43.841Z,19.51
2018-05-06T19:43:44.572Z,20.04
2018-05-06T19:49:45.330Z,25.79
2018-05-06T19:53:46.070Z,26.38
2018-05-06T19:55:46.822Z,24.71
2018-05-06T19:59:47.556Z,22.81
2018-05-06T20:05:48.309Z,20.6
2018-05-06T20:09:49.096Z,19.36
2018-05-06T20:15:49.913Z,18.01
2018-05-06T20:19:50.727Z,19.37
2018-05-06T20:21:51.411Z,19.04
2018-05-06T20:25:52.179Z,16.64
2018-05-06T20:31:54.596Z,17.85
2018-05-06T20:35:56.099Z,21.01
2018-05-06T20:41:57.113Z,19.09
2018-05-06T20:45:57.784Z,18.18
2018-05-06T20:47:58.561Z,19.02
2018-05-06T20:51:59.235Z,19.19
2018-05-06T20:57:59.992Z,18.89
2018-05-06T21:02:00.725Z,17.69
2018-05-06T21:08:01.549Z,19.58
2018-05-06T21:12:02.236Z,21.57
2018-05-06T21:14:02.912Z,20.33
2018-05-06T21:18:03.817Z,19.54
2018-05-06T21:24:04.522Z,20.58
2018-05-06T21:28:05.266Z,20.32
2018-05-06T21:34:06.133Z,22.02
2018-05-06T21:38:06.873Z,21.08
2018-05-06T21:40:07.530Z,20.39
2018-05-06T21:44:08.225Z,19.4
2018-05-06T21:50:08.943Z,20.51
2018-05-06T21:54:09.615Z,20.48
2018-05-06T22:00:10.705Z,19.64
2018-05-06T22:04:11.539Z,20.63
2018-05-06T22:06:12.161Z,21.2
2018-05-06T22:10:12.856Z,21.04
2018-05-06T22:16:13.604Z,22.46
2018-05-06T22:20:14.371Z,22.64
2018-05-06T22:26:15.120Z,32.98
2018-05-06T22:32:15.886Z,21.52
2018-05-06T22:36:16.592Z,21.24
2018-05-06T22:42:17.408Z,19.66
2018-05-06T22:46:18.050Z,19.34
2018-05-06T22:52:18.863Z,19.43
2018-05-06T22:58:19.640Z,18.48
2018-05-06T23:02:20.387Z,18.58
2018-05-06T23:08:21.089Z,18.04
2018-05-06T23:12:21.787Z,18.99
2018-05-06T23:18:22.647Z,19.47
2018-05-06T23:24:23.296Z,18.76
2018-05-06T23:28:24.022Z,17.9
2018-05-06T23:34:24.809Z,17.74
2018-05-06T23:38:25.496Z,18.27
2018-05-06T23:44:26.468Z,18.48
2018-05-06T23:50:27.250Z,19.59
2018-05-06T23:54:27.932Z,18.95
